Time;durP1;ratioP1;P1;durP2;ratioP2;P2;SDS_P1;SDS_P2;PMS_P1;PMS_P2;Temp;Humidity;BMP_temperature;BMP_pressure;BME280_temperature;BME280_humidity;BME280_pressure;Samples;Min_cycle;Max_cycle;Signal;HPM_P1;HPM_P2
2022/07/19 00:00:33;;;;;;;7.40;6.80;;;23.80;59.90;;;;;;5096542;28;20517;-69
2022/07/19 00:03:00;;;;;;;7.50;6.80;;;23.80;60.70;;;;;;5096479;28;20464;-68
2022/07/19 00:05:27;;;;;;;7.33;6.73;;;23.80;61.60;;;;;;5096267;28;20477;-68
2022/07/19 00:07:54;;;;;;;7.17;6.63;;;23.70;62.00;;;;;;5096314;28;20479;-68
2022/07/19 00:10:22;;;;;;;7.00;6.27;;;23.70;61.40;;;;;;5096213;28;20447;-68
2022/07/19 00:12:49;;;;;;;6.33;5.93;;;23.70;61.70;;;;;;5096192;28;20468;-68
2022/07/19 00:15:17;;;;;;;7.47;6.87;;;23.70;61.80;;;;;;5095888;28;20442;-68
2022/07/19 00:17:47;;;;;;;7.30;6.70;;;23.60;62.20;;;;;;5096007;28;20452;-68
2022/07/19 00:20:16;;;;;;;7.67;6.50;;;23.60;62.60;;;;;;5096077;28;20948;-68
2022/07/19 00:22:43;;;;;;;7.57;6.97;;;23.60;62.90;;;;;;5095946;28;20496;-68
2022/07/19 00:25:10;;;;;;;7.33;6.67;;;23.50;62.70;;;;;;5095885;28;20484;-68
2022/07/19 00:27:40;;;;;;;7.27;6.70;;;23.50;63.40;;;;;;5096090;28;20436;-68
2022/07/19 00:30:08;;;;;;;6.83;6.23;;;23.50;63.50;;;;;;5095781;28;20799;-68
2022/07/19 00:32:35;;;;;;;7.43;6.87;;;23.40;63.90;;;;;;5095845;28;20504;-68
2022/07/19 00:35:02;;;;;;;6.53;6.00;;;23.40;64.10;;;;;;5095779;28;20449;-68
2022/07/19 00:37:29;;;;;;;6.10;5.60;;;23.30;64.10;;;;;;5095736;28;20475;-68
2022/07/19 00:39:56;;;;;;;7.10;6.50;;;23.30;64.20;;;;;;5095704;28;20529;-68
2022/07/19 00:42:23;;;;;;;6.10;5.60;;;23.20;64.60;;;;;;5094540;28;20500;-68
2022/07/19 00:44:51;;;;;;;7.00;6.40;;;23.10;65.20;;;;;;5095548;28;20444;-68
2022/07/19 00:47:18;;;;;;;7.00;6.37;;;23.10;65.80;;;;;;5095496;28;20953;-68
2022/07/19 00:49:45;;;;;;;7.10;6.50;;;23.10;66.00;;;;;;5095478;28;20563;-68
2022/07/19 00:52:15;;;;;;;6.30;5.77;;;23.10;65.80;;;;;;5095308;28;20453;-69
2022/07/19 00:54:44;;;;;;;7.33;6.63;;;23.10;66.20;;;;;;5094983;28;20484;-69
2022/07/19 00:57:11;;;;;;;6.93;6.33;;;23.10;66.10;;;;;;5095420;28;20479;-68
2022/07/19 00:59:39;;;;;;;6.70;6.20;;;23.10;66.60;;;;;;5095207;28;20910;-68
2022/07/19 01:02:07;;;;;;;8.20;7.17;;;23.10;66.30;;;;;;5095236;28;20441;-68
2022/07/19 01:04:35;;;;;;;6.40;5.90;;;22.90;66.90;;;;;;5095187;28;20451;-69
2022/07/19 01:07:01;;;;;;;6.73;6.17;;;22.90;67.90;;;;;;5095188;28;20480;-68
2022/07/19 01:09:30;;;;;;;7.70;7.00;;;22.80;68.00;;;;;;5094888;28;20507;-68
2022/07/19 01:11:57;;;;;;;7.30;6.60;;;22.80;68.20;;;;;;5095134;28;20440;-68
2022/07/19 01:14:24;;;;;;;9.00;7.70;;;22.70;68.10;;;;;;5094624;28;20503;-68
2022/07/19 01:16:51;;;;;;;7.20;6.70;;;22.80;67.90;;;;;;5095189;28;20526;-68
2022/07/19 01:19:19;;;;;;;8.60;6.80;;;22.80;68.30;;;;;;5094934;28;20468;-68
2022/07/19 01:21:47;;;;;;;6.57;6.07;;;22.80;68.30;;;;;;5094990;28;20471;-68
2022/07/19 01:24:14;;;;;;;7.80;5.90;;;22.80;68.30;;;;;;5094470;28;20492;-68
2022/07/19 01:26:41;;;;;;;6.80;6.13;;;22.70;68.40;;;;;;5094875;28;20472;-68
2022/07/19 01:29:08;;;;;;;6.73;6.13;;;22.70;69.30;;;;;;5094756;28;20511;-68
2022/07/19 01:31:35;;;;;;;6.50;6.00;;;22.60;69.40;;;;;;5094674;28;20448;-68
2022/07/19 01:34:02;;;;;;;6.50;6.00;;;22.40;69.70;;;;;;5094437;28;20794;-68
2022/07/19 01:36:29;;;;;;;7.10;6.50;;;22.20;69.90;;;;;;5094667;28;20527;-69
2022/07/19 01:38:57;;;;;;;7.03;6.53;;;22.20;69.70;;;;;;5094655;28;20861;-68
2022/07/19 01:41:24;;;;;;;6.87;6.27;;;22.10;69.90;;;;;;5094575;28;20547;-68
2022/07/19 01:43:51;;;;;;;6.87;6.27;;;22.00;70.50;;;;;;5094102;28;20472;-68
2022/07/19 01:46:18;;;;;;;7.30;6.70;;;21.90;71.40;;;;;;5094388;28;20472;-68
2022/07/19 01:48:44;;;;;;;7.63;7.03;;;21.90;71.80;;;;;;5094449;28;20890;-68
2022/07/19 01:51:11;;;;;;;9.23;8.27;;;22.00;72.40;;;;;;5094371;28;20467;-68
2022/07/19 01:53:38;;;;;;;8.70;7.90;;;22.00;72.30;;;;;;5093806;28;20519;-68
2022/07/19 01:56:07;;;;;;;8.53;7.73;;;22.10;72.60;;;;;;5094292;28;20468;-68
2022/07/19 01:58:34;;;;;;;8.00;7.20;;;22.10;72.90;;;;;;5094291;28;20443;-68
2022/07/19 02:01:01;;;;;;;7.70;6.77;;;22.10;72.10;;;;;;5094160;28;20478;-68
2022/07/19 02:03:28;;;;;;;6.63;5.93;;;22.10;72.00;;;;;;5094234;28;20496;-68
2022/07/19 02:05:55;;;;;;;6.73;6.17;;;22.20;71.90;;;;;;5093827;28;20483;-68
2022/07/19 02:08:22;;;;;;;7.30;6.47;;;22.10;72.10;;;;;;5094362;28;20436;-68
2022/07/19 02:10:49;;;;;;;6.87;5.70;;;22.10;72.00;;;;;;5094978;28;20855;-68
2022/07/19 02:13:18;;;;;;;6.40;5.90;;;22.20;71.80;;;;;;5093966;28;20913;-68
2022/07/19 02:15:45;;;;;;;5.90;5.50;;;22.20;71.50;;;;;;5093845;28;20443;-68
2022/07/19 02:18:12;;;;;;;6.07;5.57;;;22.30;71.20;;;;;;5093976;28;20448;-68
2022/07/19 02:20:39;;;;;;;6.27;5.67;;;22.20;71.00;;;;;;5093952;28;20806;-69
2022/07/19 02:23:06;;;;;;;6.50;5.93;;;22.20;71.00;;;;;;5093755;28;20495;-68
2022/07/19 02:25:33;;;;;;;5.90;5.40;;;22.10;71.30;;;;;;5093768;28;20471;-68
2022/07/19 02:28:00;;;;;;;6.10;5.60;;;22.00;71.80;;;;;;5093949;28;20485;-68
2022/07/19 02:30:28;;;;;;;5.37;4.97;;;22.00;72.00;;;;;;5093502;28;20480;-68
2022/07/19 02:32:55;;;;;;;7.50;5.90;;;21.90;72.10;;;;;;5093504;28;20495;-68
2022/07/19 02:35:22;;;;;;;5.70;5.30;;;21.90;72.10;;;;;;5093673;28;20471;-68
2022/07/19 02:37:49;;;;;;;6.20;5.70;;;21.90;72.10;;;;;;5093638;28;20478;-68
2022/07/19 02:40:16;;;;;;;6.77;6.17;;;21.80;72.50;;;;;;5093735;28;20786;-68
2022/07/19 02:42:43;;;;;;;6.67;6.17;;;21.80;72.80;;;;;;5093533;28;21000;-68
2022/07/19 02:45:11;;;;;;;6.27;5.77;;;21.80;73.00;;;;;;5093538;28;20480;-68
2022/07/19 02:47:39;;;;;;;7.90;6.27;;;21.70;72.40;;;;;;5093475;28;20497;-68
2022/07/19 02:50:07;;;;;;;7.23;5.90;;;21.70;72.40;;;;;;5093392;28;20570;-68
2022/07/19 02:52:34;;;;;;;7.43;6.80;;;21.70;73.10;;;;;;5093311;28;20503;-69
2022/07/19 02:55:00;;;;;;;5.90;5.40;;;21.60;72.40;;;;;;5093576;28;20487;-68
2022/07/19 02:57:27;;;;;;;6.50;6.00;;;21.60;72.90;;;;;;5093586;28;20490;-68
2022/07/19 02:59:54;;;;;;;6.17;5.67;;;21.50;72.70;;;;;;5093729;28;20464;-68
2022/07/19 03:02:21;;;;;;;5.97;5.50;;;21.40;72.50;;;;;;5093640;28;20483;-69
2022/07/19 03:04:49;;;;;;;6.80;6.03;;;21.40;73.40;;;;;;5094775;28;20542;-68
2022/07/19 03:07:16;;;;;;;6.30;5.80;;;21.40;74.60;;;;;;5097705;28;20471;-68
2022/07/19 03:09:43;;;;;;;6.57;6.07;;;21.50;73.20;;;;;;5097350;28;20511;-68
2022/07/19 03:12:10;;;;;;;6.23;5.73;;;21.50;73.80;;;;;;5097401;28;20852;-68
2022/07/19 03:14:37;;;;;;;6.20;5.70;;;21.50;73.20;;;;;;5097327;28;20471;-68
2022/07/19 03:17:04;;;;;;;6.27;5.63;;;21.30;74.00;;;;;;5097237;28;20940;-68
2022/07/19 03:19:31;;;;;;;6.60;6.00;;;21.30;75.10;;;;;;5097257;28;20522;-68
2022/07/19 03:21:59;;;;;;;7.30;6.70;;;21.10;75.50;;;;;;5097286;28;20526;-68
2022/07/19 03:24:26;;;;;;;7.47;6.77;;;21.20;76.20;;;;;;5096728;28;20550;-68
2022/07/19 03:26:53;;;;;;;7.00;6.50;;;21.30;76.60;;;;;;5096965;28;20474;-68
2022/07/19 03:29:20;;;;;;;7.70;6.47;;;21.20;76.70;;;;;;5097062;28;20480;-68
2022/07/19 03:31:46;;;;;;;7.03;6.43;;;21.30;77.50;;;;;;5097324;28;20487;-68
2022/07/19 03:34:13;;;;;;;6.30;5.80;;;21.20;77.30;;;;;;5097100;28;20474;-68
2022/07/19 03:36:40;;;;;;;6.53;5.97;;;21.30;78.00;;;;;;5096982;28;20486;-69
2022/07/19 03:39:08;;;;;;;8.60;5.60;;;21.30;76.90;;;;;;5096977;28;20479;-68
2022/07/19 03:41:35;;;;;;;6.30;5.70;;;21.30;77.00;;;;;;5097112;28;20436;-68
2022/07/19 03:44:02;;;;;;;7.13;6.50;;;21.30;77.30;;;;;;5096892;28;20915;-68
2022/07/19 03:46:29;;;;;;;6.97;6.47;;;21.20;77.90;;;;;;5097018;28;20482;-68
2022/07/19 03:48:56;;;;;;;7.73;7.03;;;21.30;77.90;;;;;;5096966;28;20863;-68
2022/07/19 03:51:23;;;;;;;7.10;6.50;;;21.20;78.00;;;;;;5096632;28;20874;-68
2022/07/19 03:53:50;;;;;;;7.10;6.50;;;21.20;78.70;;;;;;5096232;28;20579;-68
2022/07/19 03:56:20;;;;;;;6.40;5.90;;;21.10;78.60;;;;;;5096650;28;20447;-68
2022/07/19 03:58:47;;;;;;;6.30;5.80;;;21.00;79.90;;;;;;5096458;28;20529;-68
2022/07/19 04:01:15;;;;;;;6.63;6.13;;;20.90;80.00;;;;;;5096570;28;20509;-68
2022/07/19 04:03:42;;;;;;;6.70;6.20;;;20.60;81.10;;;;;;5096386;28;20474;-69
2022/07/19 04:06:11;;;;;;;6.30;5.70;;;20.50;81.90;;;;;;5096372;28;20537;-68
2022/07/19 04:08:38;;;;;;;6.90;6.40;;;20.50;83.00;;;;;;5096403;28;20530;-68
2022/07/19 04:11:05;;;;;;;8.57;7.77;;;20.50;84.30;;;;;;5096083;28;20478;-68
2022/07/19 04:13:35;;;;;;;7.03;6.40;;;20.60;84.00;;;;;;5096301;28;20553;-68
2022/07/19 04:16:02;;;;;;;7.53;6.93;;;20.70;84.20;;;;;;5095833;28;20541;-68
2022/07/19 04:18:29;;;;;;;7.97;6.93;;;20.70;84.60;;;;;;5096136;28;20455;-68
2022/07/19 04:20:56;;;;;;;7.53;6.93;;;20.80;85.00;;;;;;5096560;28;20534;-68
2022/07/19 04:23:22;;;;;;;7.60;6.90;;;20.70;85.40;;;;;;5096067;28;20559;-68
2022/07/19 04:25:49;;;;;;;7.93;7.27;;;20.70;85.80;;;;;;5095736;28;20948;-68
2022/07/19 04:28:16;;;;;;;7.80;7.20;;;20.80;85.30;;;;;;5096026;28;20440;-68
2022/07/19 04:30:44;;;;;;;7.30;6.70;;;20.80;86.40;;;;;;5095905;28;20566;-68
2022/07/19 04:33:14;;;;;;;7.13;6.53;;;20.80;85.90;;;;;;5095808;28;20551;-68
2022/07/19 04:35:41;;;;;;;7.27;6.67;;;20.90;85.90;;;;;;5095719;28;20445;-68
2022/07/19 04:38:08;;;;;;;8.00;6.43;;;20.90;84.60;;;;;;5095818;28;20883;-68
2022/07/19 04:40:35;;;;;;;6.60;6.03;;;20.80;85.70;;;;;;5095825;28;20539;-68
2022/07/19 04:43:02;;;;;;;6.60;5.90;;;20.60;85.90;;;;;;5096020;28;20473;-68
2022/07/19 04:45:29;;;;;;;6.63;5.83;;;20.50;86.80;;;;;;5095489;28;20539;-68
2022/07/19 04:47:57;;;;;;;8.13;6.63;;;20.40;87.40;;;;;;5095786;28;20531;-68
2022/07/19 04:50:24;;;;;;;6.57;6.03;;;20.50;87.00;;;;;;5095648;28;20570;-68
2022/07/19 04:52:51;;;;;;;7.90;7.20;;;20.50;87.20;;;;;;5095553;28;20480;-69
2022/07/19 04:55:18;;;;;;;7.47;6.87;;;20.50;87.70;;;;;;5095374;28;20530;-67
2022/07/19 04:57:45;;;;;;;7.43;6.67;;;20.50;88.60;;;;;;5095443;28;20482;-67
2022/07/19 05:00:12;;;;;;;7.33;6.73;;;20.60;89.10;;;;;;5095285;28;20518;-68
2022/07/19 05:02:39;;;;;;;7.20;6.60;;;20.50;89.80;;;;;;5095036;28;20985;-68
2022/07/19 05:05:09;;;;;;;8.57;7.70;;;20.60;90.10;;;;;;5095202;28;20873;-67
2022/07/19 05:07:36;;;;;;;7.47;6.87;;;20.50;90.30;;;;;;5095214;28;20451;-68
2022/07/19 05:10:03;;;;;;;7.83;7.13;;;20.50;90.40;;;;;;5095136;28;20490;-68
2022/07/19 05:12:30;;;;;;;7.67;7.00;;;20.70;90.50;;;;;;5095046;28;20463;-68
2022/07/19 05:14:58;;;;;;;7.63;6.90;;;20.80;90.20;;;;;;5094956;28;20538;-67
2022/07/19 05:17:25;;;;;;;7.60;6.90;;;20.90;90.60;;;;;;5095057;28;20527;-67
2022/07/19 05:19:52;;;;;;;7.47;6.87;;;20.90;89.60;;;;;;5094877;28;20531;-67
2022/07/19 05:22:22;;;;;;;7.33;6.73;;;20.90;89.30;;;;;;5094814;28;20530;-68
2022/07/19 05:24:49;;;;;;;7.93;7.13;;;21.00;89.90;;;;;;5094877;28;20470;-68
2022/07/19 05:27:16;;;;;;;8.50;7.70;;;21.00;88.70;;;;;;5094234;28;20443;-68
2022/07/19 05:29:42;;;;;;;8.17;7.30;;;21.10;89.00;;;;;;5094762;28;20554;-67
2022/07/19 05:32:09;;;;;;;8.10;7.50;;;21.10;88.20;;;;;;5094693;28;20538;-68
2022/07/19 05:34:36;;;;;;;8.93;7.80;;;21.10;89.60;;;;;;5094740;28;20450;-68
2022/07/19 05:37:03;;;;;;;8.40;7.80;;;21.00;90.20;;;;;;5094674;28;20817;-68
2022/07/19 05:39:32;;;;;;;7.00;6.47;;;20.90;90.20;;;;;;5094696;28;20551;-68
2022/07/19 05:41:58;;;;;;;8.27;7.47;;;20.90;90.50;;;;;;5094768;28;20533;-67
2022/07/19 05:44:25;;;;;;;8.30;7.50;;;21.10;90.20;;;;;;5094453;28;20543;-68
2022/07/19 05:46:52;;;;;;;8.37;7.67;;;21.20;90.20;;;;;;5094511;28;20539;-68
2022/07/19 05:49:19;;;;;;;9.63;8.67;;;21.30;90.50;;;;;;5094483;28;20527;-68
2022/07/19 05:51:46;;;;;;;9.80;8.70;;;21.40;90.50;;;;;;5094328;28;20901;-68
2022/07/19 05:54:13;;;;;;;10.00;7.97;;;21.40;90.50;;;;;;5093747;28;20563;-68
2022/07/19 05:56:41;;;;;;;9.80;8.60;;;21.40;90.70;;;;;;5094188;28;21001;-67
2022/07/19 05:59:08;;;;;;;9.43;8.53;;;21.50;90.60;;;;;;5094471;28;20475;-68
2022/07/19 06:01:35;;;;;;;9.30;8.40;;;21.60;90.30;;;;;;5094334;28;20538;-67
2022/07/19 06:04:02;;;;;;;8.40;7.70;;;21.70;89.60;;;;;;5094305;28;20492;-68
2022/07/19 06:06:30;;;;;;;9.30;8.40;;;21.70;89.20;;;;;;5094198;28;20529;-67
2022/07/19 06:08:58;;;;;;;9.33;8.50;;;21.70;88.90;;;;;;5094263;28;20863;-68
2022/07/19 06:11:25;;;;;;;8.87;8.07;;;21.70;89.30;;;;;;5093978;28;20482;-67
2022/07/19 06:13:54;;;;;;;9.07;8.27;;;21.60;90.10;;;;;;5093915;28;20578;-68
2022/07/19 06:16:21;;;;;;;9.63;7.33;;;21.60;90.80;;;;;;5093996;28;20527;-67
2022/07/19 06:18:48;;;;;;;9.40;8.60;;;21.60;90.80;;;;;;5093917;28;21001;-67
2022/07/19 06:21:18;;;;;;;8.90;8.20;;;21.50;91.30;;;;;;5093833;28;21010;-68
2022/07/19 06:23:46;;;;;;;9.43;8.43;;;21.50;91.20;;;;;;5093534;28;20520;-68
2022/07/19 06:26:13;;;;;;;8.83;8.00;;;21.60;91.60;;;;;;5093677;28;20993;-67
2022/07/19 06:28:40;;;;;;;9.07;8.17;;;21.60;91.70;;;;;;5094018;28;20467;-68
2022/07/19 06:31:09;;;;;;;12.07;9.63;;;21.60;91.60;;;;;;5093671;28;20486;-67
2022/07/19 06:33:36;;;;;;;10.17;9.27;;;21.60;91.40;;;;;;5093714;28;20552;-68
2022/07/19 06:36:03;;;;;;;10.30;9.30;;;21.70;91.20;;;;;;5093569;28;20546;-68
2022/07/19 06:38:30;;;;;;;9.57;8.73;;;21.80;90.90;;;;;;5093462;28;20855;-68
2022/07/19 06:40:57;;;;;;;11.07;9.97;;;21.90;90.80;;;;;;5092872;28;20935;-68
2022/07/19 06:43:24;;;;;;;10.50;9.50;;;22.00;90.90;;;;;;5093286;28;20468;-68
2022/07/19 06:45:51;;;;;;;10.70;9.67;;;22.00;90.60;;;;;;5093509;28;20526;-67
2022/07/19 06:48:19;;;;;;;11.10;10.00;;;22.10;90.80;;;;;;5093625;28;20965;-67
2022/07/19 06:50:46;;;;;;;12.10;9.77;;;22.10;90.60;;;;;;5093496;28;20575;-68
2022/07/19 06:53:13;;;;;;;11.10;10.00;;;22.10;90.70;;;;;;5093386;28;20558;-68
2022/07/19 06:55:39;;;;;;;11.20;10.10;;;22.20;90.50;;;;;;5093561;28;20439;-68
2022/07/19 06:58:06;;;;;;;9.93;9.03;;;22.30;91.00;;;;;;5094399;28;20973;-68
2022/07/19 07:00:33;;;;;;;11.47;10.10;;;22.40;90.80;;;;;;5094055;28;20444;-67
2022/07/19 07:03:02;;;;;;;10.40;9.30;;;22.50;90.30;;;;;;5093459;28;20467;-68
2022/07/19 07:05:30;;;;;;;10.40;9.30;;;22.60;90.00;;;;;;5093162;28;20538;-68
2022/07/19 07:07:57;;;;;;;10.20;8.80;;;22.80;90.00;;;;;;5093502;28;20440;-67
2022/07/19 07:10:24;;;;;;;14.10;9.57;;;23.10;89.80;;;;;;5093475;28;20481;-68
2022/07/19 07:12:51;;;;;;;10.53;9.50;;;23.40;86.40;;;;;;5093399;28;20547;-68
2022/07/19 07:15:18;;;;;;;11.07;8.93;;;23.50;86.00;;;;;;5093303;28;20443;-68
2022/07/19 07:17:45;;;;;;;9.20;8.30;;;23.60;85.00;;;;;;5093316;28;20438;-67
2022/07/19 07:20:12;;;;;;;9.37;8.37;;;23.80;83.70;;;;;;5093397;28;20525;-68
2022/07/19 07:22:41;;;;;;;8.37;7.33;;;24.00;82.70;;;;;;5093241;28;20553;-68
2022/07/19 07:25:09;;;;;;;8.60;7.60;;;24.30;79.90;;;;;;5093068;28;20448;-67
2022/07/19 07:27:36;;;;;;;7.17;6.57;;;24.50;79.80;;;;;;5093206;28;20921;-68
2022/07/19 07:30:03;;;;;;;7.70;7.03;;;24.70;78.10;;;;;;5093077;28;20448;-67
2022/07/19 07:32:30;;;;;;;7.40;6.70;;;24.90;76.80;;;;;;5093174;28;20822;-68
2022/07/19 07:34:57;;;;;;;7.80;7.10;;;25.00;77.10;;;;;;5093087;28;20530;-68
2022/07/19 07:37:26;;;;;;;6.97;6.30;;;25.00;74.50;;;;;;5093233;28;20872;-68
2022/07/19 07:39:54;;;;;;;6.40;5.90;;;25.30;73.10;;;;;;5093093;28;20512;-68
2022/07/19 07:42:21;;;;;;;6.47;5.90;;;25.60;71.70;;;;;;5093032;28;20530;-68
2022/07/19 07:44:48;;;;;;;8.20;6.10;;;26.00;71.50;;;;;;5093010;28;20539;-68
2022/07/19 07:47:15;;;;;;;6.10;5.60;;;26.30;70.20;;;;;;5093122;28;20517;-68
2022/07/19 07:49:42;;;;;;;5.77;5.17;;;26.40;66.70;;;;;;5092850;28;20910;-68
2022/07/19 07:52:09;;;;;;;5.67;5.17;;;26.70;67.40;;;;;;5095709;28;20566;-68
2022/07/19 07:54:36;;;;;;;5.23;4.83;;;27.40;66.00;;;;;;5096218;28;20885;-68
2022/07/19 07:57:04;;;;;;;5.90;5.30;;;28.60;59.80;;;;;;5096624;28;20537;-68
2022/07/19 07:59:31;;;;;;;5.47;4.97;;;30.10;56.50;;;;;;5096559;28;20472;-68
2022/07/19 08:01:58;;;;;;;5.00;4.50;;;30.90;53.40;;;;;;5096530;28;20468;-68
2022/07/19 08:04:25;;;;;;;4.60;4.30;;;31.20;51.40;;;;;;5096333;28;20559;-68
2022/07/19 08:06:52;;;;;;;4.70;4.30;;;31.40;49.30;;;;;;5096309;28;20988;-68
2022/07/19 08:09:19;;;;;;;5.70;4.40;;;31.00;48.50;;;;;;5096376;28;20531;-68
2022/07/19 08:11:46;;;;;;;4.10;3.80;;;31.20;48.50;;;;;;5096229;28;20830;-68
2022/07/19 08:14:14;;;;;;;5.00;3.70;;;31.90;45.00;;;;;;5095864;28;20543;-68
2022/07/19 08:16:41;;;;;;;3.73;3.40;;;32.60;44.70;;;;;;5096264;28;20870;-68
2022/07/19 08:19:08;;;;;;;3.47;3.27;;;33.60;44.00;;;;;;5096090;28;20862;-68
2022/07/19 08:21:35;;;;;;;4.37;3.90;;;34.20;42.70;;;;;;5096033;28;20994;-68
2022/07/19 08:24:02;;;;;;;3.63;3.43;;;34.70;41.00;;;;;;5095854;28;20468;-69
2022/07/19 08:26:30;;;;;;;3.33;3.13;;;34.70;39.50;;;;;;5096027;28;20530;-69
2022/07/19 08:28:56;;;;;;;3.90;3.60;;;35.00;39.70;;;;;;5096016;28;20871;-69
2022/07/19 08:31:25;;;;;;;3.50;3.13;;;35.50;38.20;;;;;;5095797;28;20929;-68
2022/07/19 08:33:51;;;;;;;3.63;3.43;;;35.80;38.20;;;;;;5095797;28;20551;-69
2022/07/19 08:36:18;;;;;;;3.83;3.53;;;36.10;38.70;;;;;;5095901;28;20432;-69
2022/07/19 08:38:46;;;;;;;3.57;3.27;;;36.60;37.70;;;;;;5096256;28;20440;-70
2022/07/19 08:41:15;;;;;;;3.53;3.33;;;37.30;36.60;;;;;;5095767;28;20780;-69
2022/07/19 08:43:42;;;;;;;3.93;3.63;;;37.90;34.90;;;;;;5095708;28;20972;-69
2022/07/19 08:46:08;;;;;;;3.70;3.47;;;38.50;32.80;;;;;;5095735;28;20444;-69
2022/07/19 08:48:39;;;;;;;4.20;4.00;;;39.50;32.70;;;;;;5095727;28;20436;-69
2022/07/19 08:51:06;;;;;;;3.47;3.23;;;40.10;32.10;;;;;;5095622;28;20472;-69
2022/07/19 08:53:37;;;;;;;4.87;4.00;;;40.50;30.30;;;;;;5095116;28;21036;-68
2022/07/19 08:57:56;;;;;;;3.90;3.60;;;40.90;29.20;;;;;;5095195;28;20444;-69
2022/07/19 08:58:52;;;;;;;2.90;2.80;;;41.70;29.20;;;;;;5095164;28;20440;-69
2022/07/19 09:01:19;;;;;;;4.03;3.83;;;42.80;28.70;;;;;;5095394;28;20443;-69
2022/07/19 09:04:11;;;;;;;4.10;3.70;;;43.40;27.60;;;;;;5093977;28;20298;-69
2022/07/19 09:06:40;;;;;;;4.20;3.80;;;44.60;27.40;;;;;;5095413;28;20498;-69
2022/07/19 09:09:07;;;;;;;4.30;4.00;;;45.10;26.80;;;;;;5095073;28;20527;-69
2022/07/19 09:11:36;;;;;;;3.73;3.30;;;45.90;25.80;;;;;;5095190;28;20528;-69
2022/07/19 09:14:07;;;;;;;4.40;3.57;;;44.60;24.30;;;;;;5094915;28;20551;-69
2022/07/19 09:16:56;;;;;;;4.27;3.87;;;44.70;24.90;;;;;;5095018;28;20523;-69
2022/07/19 09:19:26;;;;;;;4.70;3.40;;;44.40;24.50;;;;;;5095009;28;20523;-69
2022/07/19 09:21:59;;;;;;;3.50;3.30;;;43.70;24.30;;;;;;5094940;28;20563;-69
2022/07/19 09:24:27;;;;;;;4.10;3.80;;;43.00;24.80;;;;;;5094862;28;20468;-69
2022/07/19 09:27:02;;;;;;;3.53;3.33;;;43.10;24.80;;;;;;5094868;28;20535;-69
2022/07/19 09:29:31;;;;;;;3.40;3.27;;;44.10;25.10;;;;;;5094906;28;20523;-69
2022/07/19 09:32:09;;;;;;;3.57;3.37;;;44.40;25.10;;;;;;5094620;28;20440;-69
2022/07/19 09:34:39;;;;;;;3.47;3.30;;;45.20;24.20;;;;;;5094665;28;20448;-69
2022/07/19 09:37:15;;;;;;;3.93;3.60;;;45.80;23.70;;;;;;5094779;28;20471;-70
2022/07/19 09:39:44;;;;;;;3.80;3.40;;;46.30;23.30;;;;;;5094494;28;20965;-69
2022/07/19 09:42:12;;;;;;;3.97;3.77;;;46.00;22.90;;;;;;5094648;28;20829;-70
2022/07/19 09:44:39;;;;;;;3.57;3.40;;;46.10;23.10;;;;;;5094354;28;20434;-69
2022/07/19 09:47:06;;;;;;;4.00;3.73;;;46.30;23.90;;;;;;5094559;28;20440;-69
2022/07/19 09:49:33;;;;;;;4.47;4.27;;;46.10;23.40;;;;;;5094419;28;20440;-69
2022/07/19 09:52:02;;;;;;;3.70;3.50;;;45.40;22.80;;;;;;5094413;28;20550;-69
2022/07/19 09:54:31;;;;;;;4.40;4.03;;;45.70;23.30;;;;;;5093968;28;21038;-69
2022/07/19 09:56:59;;;;;;;3.70;3.50;;;46.40;23.10;;;;;;5094324;28;20444;-69
2022/07/19 09:59:27;;;;;;;3.90;3.67;;;46.40;22.70;;;;;;5094291;28;20444;-69
2022/07/19 10:01:55;;;;;;;3.63;3.43;;;46.70;22.60;;;;;;5094212;28;20831;-69
2022/07/19 10:04:24;;;;;;;4.37;4.07;;;45.90;22.70;;;;;;5093935;28;20551;-67
2022/07/19 10:06:52;;;;;;;3.93;3.73;;;45.90;23.20;;;;;;5093971;28;21029;-67
2022/07/19 10:09:22;;;;;;;4.87;4.53;;;45.10;22.60;;;;;;5094222;28;20806;-67
2022/07/19 10:11:49;;;;;;;3.77;3.47;;;44.40;23.10;;;;;;5094112;28;20522;-67
2022/07/19 10:14:16;;;;;;;4.90;4.50;;;45.10;23.50;;;;;;5093417;28;20518;-67
2022/07/19 10:16:55;;;;;;;3.90;3.70;;;45.40;22.30;;;;;;5093995;28;20476;-69
2022/07/19 10:19:31;;;;;;;4.00;3.80;;;45.80;22.30;;;;;;5094054;28;20518;-69
2022/07/19 10:21:59;;;;;;;4.03;3.83;;;46.10;22.60;;;;;;5093752;28;21073;-69
2022/07/19 10:24:51;;;;;;;3.83;3.53;;;45.80;21.70;;;;;;5093740;28;20550;-69
2022/07/19 10:27:34;;;;;;;3.97;3.70;;;46.20;22.60;;;;;;5093837;28;20981;-69
2022/07/19 10:30:20;;;;;;;3.83;3.53;;;46.90;21.90;;;;;;5093739;28;20851;-69
2022/07/19 10:32:48;;;;;;;3.63;3.43;;;47.30;22.30;;;;;;5093734;28;20471;-69
2022/07/19 10:35:17;;;;;;;4.20;3.73;;;46.80;21.60;;;;;;5093711;28;20451;-69
2022/07/19 10:37:45;;;;;;;4.03;3.83;;;46.10;21.30;;;;;;5093874;28;21025;-69
2022/07/19 10:40:13;;;;;;;5.43;5.03;;;44.90;21.90;;;;;;5094300;28;20794;-69
2022/07/19 10:43:05;;;;;;;4.13;3.80;;;44.50;23.00;;;;;;5093905;28;20574;-69
2022/07/19 10:45:31;;;;;;;4.17;3.90;;;43.50;23.10;;;;;;5093641;28;20444;-69
2022/07/19 10:48:13;;;;;;;4.40;4.10;;;43.30;24.60;;;;;;5093691;28;20526;-69
2022/07/19 10:50:57;;;;;;;4.13;3.73;;;43.00;24.60;;;;;;5093723;28;20519;-69
2022/07/19 10:54:03;;;;;;;4.53;4.17;;;41.70;24.00;;;;;;5093160;28;21004;-69
2022/07/19 10:56:50;;;;;;;4.50;4.20;;;40.70;25.30;;;;;;5093487;28;20451;-69
2022/07/19 10:59:41;;;;;;;5.33;4.57;;;40.20;25.90;;;;;;5090936;28;20494;-69
2022/07/19 11:02:21;;;;;;;4.20;3.90;;;39.40;26.30;;;;;;5093393;28;20475;-69
2022/07/19 11:04:48;;;;;;;4.83;4.43;;;38.60;26.80;;;;;;5093525;28;20524;-69
2022/07/19 11:07:19;;;;;;;4.17;3.90;;;38.30;28.00;;;;;;5093703;28;20452;-69
2022/07/19 11:09:49;;;;;;;4.10;3.80;;;37.80;27.40;;;;;;5093570;28;20480;-69
2022/07/19 11:12:29;;;;;;;4.80;4.30;;;37.40;28.20;;;;;;5093837;28;20436;-69
2022/07/19 11:14:56;;;;;;;5.80;4.97;;;37.00;27.60;;;;;;5093359;28;20438;-69
2022/07/19 11:17:23;;;;;;;4.33;3.93;;;36.90;28.90;;;;;;5093384;28;20527;-69
2022/07/19 11:20:02;;;;;;;4.20;3.90;;;36.90;28.80;;;;;;5093371;28;20535;-69
2022/07/19 11:22:34;;;;;;;5.10;4.60;;;36.50;28.30;;;;;;5093281;28;20562;-69
2022/07/19 11:25:01;;;;;;;5.70;4.10;;;36.30;28.40;;;;;;5093285;28;20519;-69
2022/07/19 11:27:30;;;;;;;4.50;4.20;;;36.30;28.70;;;;;;5096795;28;20451;-69
2022/07/19 11:30:00;;;;;;;4.00;3.70;;;36.20;28.60;;;;;;5097148;28;20535;-69
2022/07/19 11:32:27;;;;;;;4.10;3.90;;;36.40;29.50;;;;;;5097035;28;20527;-69
2022/07/19 11:34:55;;;;;;;4.33;3.93;;;36.40;29.60;;;;;;5096846;28;20443;-69
2022/07/19 11:37:27;;;;;;;7.43;4.50;;;36.40;28.90;;;;;;5097051;28;20440;-69
2022/07/19 11:39:54;;;;;;;9.77;8.97;;;36.40;28.70;;;;;;5097015;28;20436;-69
2022/07/19 11:42:34;;;;;;;3.93;3.53;;;36.30;29.20;;;;;;5096765;28;20574;-69
2022/07/19 11:45:13;;;;;;;4.20;3.90;;;36.00;28.50;;;;;;5096818;28;20518;-69
2022/07/19 11:47:46;;;;;;;4.67;4.27;;;36.10;28.70;;;;;;5096854;28;20432;-69
2022/07/19 11:50:14;;;;;;;4.23;3.70;;;36.20;29.00;;;;;;5097063;28;20539;-69
2022/07/19 11:52:47;;;;;;;4.17;3.77;;;36.30;29.60;;;;;;5096467;28;20532;-69
2022/07/19 11:55:15;;;;;;;4.97;4.57;;;36.30;28.80;;;;;;5096550;28;20523;-69
2022/07/19 11:57:44;;;;;;;5.30;4.13;;;36.30;29.30;;;;;;5096572;28;20779;-69
2022/07/19 12:00:12;;;;;;;4.20;3.83;;;36.50;29.00;;;;;;5096460;28;20450;-69
2022/07/19 12:02:58;;;;;;;4.20;3.80;;;36.40;29.00;;;;;;5096439;28;20490;-69
2022/07/19 12:05:26;;;;;;;4.10;3.80;;;36.50;28.80;;;;;;5096154;28;20463;-69
2022/07/19 12:07:56;;;;;;;3.87;3.53;;;36.50;28.70;;;;;;5096724;28;20446;-69
2022/07/19 12:10:41;;;;;;;5.03;4.53;;;36.50;28.90;;;;;;5096665;28;20926;-69
2022/07/19 12:13:12;;;;;;;5.37;4.20;;;36.50;29.90;;;;;;5096548;28;20471;-69
2022/07/19 12:15:48;;;;;;;39.43;8.93;;;36.50;29.10;;;;;;5096191;28;20429;-69
2022/07/19 12:18:16;;;;;;;5.00;4.60;;;36.50;30.30;;;;;;5096531;28;20447;-69
2022/07/19 12:20:44;;;;;;;67.40;11.53;;;36.50;29.80;;;;;;5096276;28;20806;-69
2022/07/19 12:23:16;;;;;;;5.53;5.00;;;36.60;30.10;;;;;;5095994;28;20484;-69
2022/07/19 12:25:43;;;;;;;5.80;4.67;;;36.50;30.30;;;;;;5095967;28;20443;-69
2022/07/19 12:28:12;;;;;;;6.10;4.50;;;36.60;30.10;;;;;;5096065;28;20444;-69
2022/07/19 12:30:39;;;;;;;5.00;4.60;;;36.60;28.90;;;;;;5095862;28;20527;-69
2022/07/19 12:33:11;;;;;;;4.50;4.10;;;36.40;28.80;;;;;;5095671;28;20499;-69
2022/07/19 12:35:43;;;;;;;4.50;4.10;;;36.40;29.30;;;;;;5095890;28;20532;-69
2022/07/19 12:38:11;;;;;;;4.40;4.10;;;36.40;29.60;;;;;;5095730;28;20444;-69
2022/07/19 12:40:39;;;;;;;4.87;4.57;;;36.40;29.20;;;;;;5095821;28;20440;-69
2022/07/19 12:43:06;;;;;;;4.97;4.57;;;36.40;29.30;;;;;;5095739;28;20503;-69
2022/07/19 12:45:39;;;;;;;5.33;4.93;;;36.40;29.50;;;;;;5095946;28;20440;-69
2022/07/19 12:48:07;;;;;;;5.47;5.03;;;36.40;30.00;;;;;;5095870;28;20797;-69
2022/07/19 12:50:36;;;;;;;4.33;4.03;;;36.20;29.40;;;;;;5095668;28;20476;-69
2022/07/19 12:53:05;;;;;;;4.73;4.40;;;36.10;30.00;;;;;;5095290;28;20519;-69